Close sub menu
NASDAQ
NY-Nasdaq Composite 25326,126 +258,33 +1,03% (23:16)
Stijgers 1 dag
Dalers 1 dag
Indices 1 dag
Intel Corp +12,9%
Micron Technology Inc +11,1%
QUALCOMM +10,8%
Enphase Energy +10,6%
GlobalFoundries +9,1%
Lam Research Corp +6,7%
Applied Materials +5,0%
ASML Holding NV +4,1%
Advanced Micro Devices +4,0%
Microchip Technology +3,3%
Marvell Technology +3,1%
Apple +2,7%
PayPal Holdings -7,8%
Lucid Group Inc -6,6%
Charter Communications -4,3%
eBay -3,7%
Diamondback Energy -3,5%
Netflix Inc. -3,4%
Comcast Corp -2,3%
Intuit -2,1%
Baker Hughes Company -1,8%
Align Technology -1,8%
SiriusXM Holdings Inc -1,4%
CoStar Group -1,4%
AEX* 1.014,50+0,9%
Midkap* 1.046,06+0,5%
AMS Next 20®* 1.657,19+0,7%
FTSE100 10.219,11-1,4%
Dow Jones 49.298,25+0,7%
NASDAQ 25.326,126+1,0%
S&P500 7.259,22+0,8%
S&P Future 7.295,50+0,8%
BEL20** 5.440,14+1,6%
CAC 40** 7.976,12-1,7%
DAX 24.401,70+1,7%
* real time    ** slotkoers
NaamKoersVorige+/- %1 wk1 mndDit jaar 1 jaarTijd
Adobe 255,62 253,96 +0,7% +6,1% +4,6% -27,4% -33,3% 22:00
Advanced Micro Devices 355,26 341,54 +4,0% +2,1% +57,0% +59,5% +245,6% 22:00
Airbnb 139,68 138,86 +0,6% -1,6% +11,2% +2,3% +10,9% 22:00
Align Technology 168,82 171,88 -1,8% -6,9% +0,7% +10,1% -4,4% 22:00
Alphabet 384,31 379,64 +1,2% +8,9% +28,9% +21,0% +129,0% 22:00
Alphabet 388,47 383,25 +1,4% +9,4% +29,6% +22,4% +133,6% 22:00
Amazon.com 273,52 272,05 +0,5% +4,2% +29,7% +17,9% +43,2% 22:00
American Electric Power Company 137,04 134,66 +1,8% -0,3% +1,5% +16,8% +25,0% 22:00
Amgen 329,59 323,85 +1,8% -4,8% -6,9% -1,1% +15,1% 22:00
Analog Devices 404,84 397,02 +2,0% +1,2% +24,8% +46,5% +100,0% 22:00
Ansys 374,30 374,30 -- -- -4,7% +11,0% +15,2% 22:00
Apple 284,18 276,83 +2,7% +3,5% +8,2% +1,8% +34,8% 22:00
Applied Materials 410,95 391,38 +5,0% -3,3% +12,4% +52,3% +152,4% 22:00
ASML Holding NV 1.442,55 1.386,21 +4,1% -3,2% +5,2% +29,6% +100,8% 22:00
AstraZeneca PLC 194,94 194,94 0,0% -- +0,3% +112,1% +200,4% 00:00
Atlassian Corp 92,47 93,16 -0,7% +34,6% +36,5% -42,5% -55,3% 22:00
Autodesk 249,42 247,54 +0,8% +5,3% +4,0% -16,4% -11,6% 22:00
Automatic Data Processing 210,60 211,32 -0,3% +7,1% +3,6% -17,8% -30,4% 22:00
Baker Hughes Company 67,78 69,01 -1,8% +0,9% +14,3% +51,5% +86,0% 22:00
Biogen 189,13 187,21 +1,0% +3,6% +5,5% +6,4% +51,6% 22:00
Booking Holdings Inc. 167,61 165,58 +1,2% -6,7% -1,3% -22,7% -20,4% 22:00
Broadcom Inc. 427,45 416,50 +2,6% -0,4% +32,5% +20,4% +104,5% 22:00
Cadence Design Systems 353,63 349,51 +1,2% +3,9% +25,4% +11,9% +13,5% 22:00
Charter Communications 158,17 165,34 -4,3% -5,3% -24,8% -20,8% -57,1% 22:00
Cintas Corp 169,17 166,89 +1,4% -4,1% -4,3% -11,3% -21,1% 22:00
Cisco Systems 94,30 92,63 +1,8% +5,0% +17,2% +20,3% +56,1% 22:00
Cognizant Technology Solutions Corp 51,87 51,86 0,0% -5,1% -17,1% -37,5% -33,3% 22:00
Comcast Corp 26,46 27,07 -2,3% -1,6% -3,0% -9,4% -21,4% 22:00
Constellation Energy Corp 320,36 321,05 -0,2% +1,9% +17,7% -9,1% +29,7% 22:00
Copart 33,15 33,29 -0,4% +0,3% -0,3% -15,0% -45,6% 22:00
CoStar Group 34,90 35,38 -1,4% -2,4% -11,4% -47,4% -54,6% 22:00
Costco Wholesale Corp 1.016,42 1.012,79 +0,4% +1,5% -0,2% +17,4% +0,4% 22:00
CrowdStrike Holdings 476,53 469,24 +1,6% +3,2% +17,6% +0,1% +6,5% 22:00
CSX Corp 45,03 44,72 +0,7% -1,6% +8,5% +23,4% +55,8% 22:00
Datadog 145,73 146,69 -0,7% +10,6% +21,9% +7,9% +39,7% 22:00
DexCom 59,47 60,04 -0,9% -2,2% -3,5% -9,5% -26,4% 22:00
Diamondback Energy 206,19 213,69 -3,5% +8,8% +10,2% +42,1% +56,2% 22:00
Dollar Tree 93,69 94,05 -0,4% -4,0% -13,3% -23,6% +11,6% 22:00
eBay 105,27 109,33 -3,7% +9,0% +16,1% +25,5% +59,4% 22:00
Electronic Arts 201,41 201,82 -0,2% -0,3% -0,9% -1,2% +33,6% 22:00
Enphase Energy 36,01 32,54 +10,6% -7,7% -6,8% +1,5% -28,6% 22:00
Exelon Corp 46,18 46,61 -0,9% +0,1% -5,5% +7,0% +0,3% 22:00
Fastenal Co 44,33 44,88 -1,2% -0,9% -3,1% +11,8% +9,3% 22:00
Fortinet 89,92 89,24 +0,8% +4,2% +8,2% +12,4% -16,0% 22:00
Gilead Sciences 133,48 132,69 +0,6% +3,9% -5,0% +8,1% +28,0% 22:00
GlobalFoundries 73,93 67,75 +9,1% +12,3% +54,9% +94,0% +86,1% 22:00
Honeywell International 209,06 209,59 -0,3% -1,2% -8,7% +7,4% -2,1% 22:00
IDEXX Laboratories 562,97 563,12 0,0% -2,1% -1,1% -16,8% +19,3% 22:00
Illumina 139,05 139,37 -0,2% +8,4% +9,4% +6,3% +79,0% 22:00
Intel Corp 108,18 95,78 +12,9% +12,7% +90,1% +159,5% +364,4% 22:00
Intuit 398,32 406,99 -2,1% +4,4% -3,7% -38,6% -35,6% 22:00
Intuitive Surgical 451,31 452,35 -0,2% -4,0% 0,0% -20,2% -14,6% 22:00
JD.com 29,69 30,04 -1,2% +1,0% +5,5% +4,7% -12,8% 22:00
Keurig Dr Pepper 28,92 28,87 +0,2% +2,6% +14,1% +3,1% -16,1% 22:00
KLA Corp 1.732,90 1.713,32 +1,1% -9,8% +13,0% +41,0% +145,4% 22:00
Kraft Heinz Company (The) 22,56 22,42 +0,6% +2,3% -1,6% -7,5% -21,7% 22:00
Lam Research Corp 275,80 258,57 +6,7% -0,3% +18,4% +51,1% +247,1% 22:00
Lucid Group Inc 6,25 6,69 -6,6% +12,8% -32,8% -36,7% -73,6% 22:00
lululemon athletica 130,21 128,98 +1,0% -12,2% -17,2% -37,9% -53,5% 22:00
Marriott International 354,52 347,24 +2,1% -3,7% +4,6% +11,9% +39,2% 22:00
Marvell Technology 168,75 163,66 +3,1% +3,4% +52,7% +92,4% +162,3% 22:00
MercadoLibre 1.816,80 1.813,53 +0,2% -1,4% +5,7% -10,0% -20,5% 22:00
Meta Platforms 605,08 610,41 -0,9% -10,0% +6,2% -7,5% +2,3% 22:00
Microchip Technology 98,48 95,30 +3,3% +9,7% +45,2% +49,5% +98,9% 22:00
Micron Technology Inc 640,45 576,45 +11,1% +9,9% +57,4% +101,9% +614,0% 22:00
Microsoft Corp 411,35 413,62 -0,5% -2,6% +10,8% -14,5% -5,0% 22:00
Moderna 46,71 47,30 -1,2% -2,9% -3,9% +60,4% +71,3% 22:00
Mondelez International 61,36 61,38 0,0% +6,9% +6,7% +14,0% -9,4% 22:00
Monster Beverage Corp 75,80 75,20 +0,8% -2,1% +4,0% -1,9% +25,3% 22:00
Netflix Inc. 87,89 91,02 -3,4% -0,4% -7,7% -2,9% -21,3% 22:00
NVIDIA Corp 196,50 198,48 -1,0% -8,3% +11,9% +6,5% +73,5% 22:00
NXP Semiconductors NV 292,42 290,76 +0,6% +22,8% +49,5% +34,0% +54,5% 22:00
Old Dominion Freight Line 196,08 192,18 +2,0% -12,8% -2,9% +22,6% +21,6% 22:00
O'Reilly Automotive Inc 95,00 93,98 +1,1% +2,2% +2,8% +3,1% +0,3% 22:00
PACCAR 113,42 114,37 -0,8% -10,1% -3,3% +4,4% +27,2% 22:00
Palo Alto Networks Inc 183,98 184,56 -0,3% +0,9% +13,1% +0,2% -1,7% 22:00
Paychex 92,85 92,48 +0,4% +2,8% +0,9% -17,6% -38,3% 22:00
PayPal Holdings 46,48 50,39 -7,8% +1,3% +11,2% -13,6% -25,0% 22:00
PDD Holdings 96,75 97,79 -1,1% -0,7% -3,0% -13,7% -11,8% 22:00
Pepsico 155,04 154,59 +0,3% +0,3% -1,5% +7,7% +15,6% 22:00
QUALCOMM 186,56 168,38 +10,8% +12,1% +32,8% -1,6% +20,4% 22:00
Regeneron Pharmaceuticals 702,33 709,21 -1,0% -4,7% -6,9% -8,1% +17,1% 22:00
Rivian Automotive 14,60 14,51 +0,6% -13,3% -5,8% -26,4% +4,8% 22:00
Ross Stores 227,43 226,02 +0,6% 0,0% +2,8% +25,5% +60,9% 22:00
Seagen 228,89 228,74 -- -- +7,2% +78,1% +78,3% 22:00
SiriusXM Holdings Inc 26,39 26,77 -1,4% +0,8% +12,4% +33,8% +30,7% 22:00
Starbucks Corp 104,94 104,97 0,0% +7,2% +16,1% +24,7% +23,9% 22:00
Synopsys 502,76 497,50 +1,1% -0,2% +25,8% +5,9% +5,3% 22:00
Tesla 389,30 392,51 -0,8% +3,7% +8,9% -12,7% +36,7% 22:00
Texas Instruments 280,88 280,89 0,0% +4,2% +44,1% +61,9% +70,7% 22:00
T-Mobile US 194,35 194,42 0,0% +6,4% -3,5% -4,2% -21,9% 22:00
Verisk Analytics 180,44 178,68 +1,0% +2,2% -3,5% -20,1% -39,2% 22:00
Vertex Pharmaceuticals 424,21 429,85 -1,3% +0,9% -2,0% -5,2% -14,2% 22:00
Walgreens Boots Alliance 11,98 11,98 -- -- +0,5% +28,4% +40,6% 22:00
Warner Bros Discovery 27,24 26,96 +1,0% +0,6% -1,3% -6,4% +215,8% 22:00
Workday 128,88 127,89 +0,8% +8,5% -3,3% -40,5% -48,6% 22:00
Xcel Energy 81,45 81,17 +0,3% +2,2% +0,5% +9,9% +14,7% 22:00
Zoom Communications Inc 109,10 106,63 +2,3% +17,4% +29,5% +23,6% +36,3% 22:00
Zscaler 141,36 142,20 -0,6% +6,0% +2,6% -36,8% -38,3% 22:00
Powered by

Schakel browser notificaties in

Schakel browser notificaties in om meldingen te ontvangen op dit apparaat.

Browser notificaties inschakelen

U heeft browser notificaties voor fd.nl eerder geweigerd. Ga naar browser instellingen en sta browser notificaties toe voor fd.nl. De precieze handelingen zijn afhankelijk van uw browser.

U volgt een onderwerp

Wanneer deze zoekterm in een artikel voorkomt, zult u deze terugvinden in Mijn nieuws onder ‘Eurobonds’.

Wilt u via de FD App meldingen ontvangen voor dit onderwerp?

Wilt u via de FD App meldingen ontvangen voor dit onderwerp?

Ons privacy statement is van toepassing.

Meldingen

Wanneer deze zoekterm in een artikel voorkomt, zult u deze terugvinden in Mijn nieuws onder ‘Eurobonds’.

Wilt u via de FD App meldingen ontvangen voor dit onderwerp?

Wilt u via de FD App meldingen ontvangen voor dit onderwerp?